الصفحة الرئيسية
METAR-TAF:

METAR-TAF

مطار :

مطار بوانت نوار

Pointe-Noire, كونغو

دائرة عرض: 04-49S, خط طول: 011-54E, ارتفاع: 17 متر

مراقبة الطقس الحالي

تاريخ ووقت الإصدار 11ساعات و 22 دقيقة قبل الساعة 11:00UTC
ريح 4 عقدة من الغرب, الاتجاه يتراوح بين الجنوب/الجنوب الغربي و الشمال الغربي
درجة الحرارة 26°درجة مئوية
الرطوبة 74%
ضغط 1012 hPa
الرؤية 10 كم أو أكثر
غيوم متفرقة على ارتفاع 1300 قدم
ملبد بالغيوم على ارتفاع 2300 قدم

METAR: FCPP 221100Z 26004KT 210V310 9999 SCT013 OVC023 26/21 Q1012 NOSIG

زمن: 23:22 (22:22 UTC)

توقعات

تاريخ ووقت الإصدار 5ساعات و 22 دقيقة قبل الساعة 17:00UTC
التوقعات صالحة من22 الساعة 18 UTC إلى 23 الساعة 18 UTC
ريح 4 عقدة من الجنوب
الرؤية: 8000 متر
غيوم متفرقة على ارتفاع 1200 قدم
غيوم مفككة على ارتفاع 2200 قدم
نظرية الاحتمالات 30%
من 23 الساعة 04 UTC إلى 23 الساعة 08 UTC
الرؤية: 3000 متر
غيوم مفككة على ارتفاع 800 قدم
رذاذ

TAF: FCPP 221700Z 2218/2318 18004KT 8000 SCT012 BKN022 PROB30 2304/2308 3000 DZ BKN008

أرصاد الطقس والتوقعات من أكثر من 4000 مطار (تقارير الطقس للمطار METAR والتنبؤ بالطقس بالمطارTAF).

المحطات المتاحة هي النقط الصفراء والحمراء على الخريطة.

حرك المؤشر فوق النقطة لمعرفة اسم المحطة.

ثم انقر لمعرفة أرصاد وتوقعات الطقس.

لتغيير الخارطة: اضغط على الأزرار الخضراء مع رمز الصليب الأسود للتكبير. على الزر الأخضر مع شرطة للتصغير، أو على الأسهم الخضراء للخرائط المجاورة.


METAR-TAF: